sensor_id;sensor_type;location;lat;lon;timestamp;temperature;humidity
530;DHT22;251;48.704;9.210;2022-12-29T00:02:22;3.40;80.10
530;DHT22;251;48.704;9.210;2022-12-29T00:04:49;3.40;79.60
530;DHT22;251;48.704;9.210;2022-12-29T00:07:16;3.30;80.50
530;DHT22;251;48.704;9.210;2022-12-29T00:09:43;3.40;80.70
530;DHT22;251;48.704;9.210;2022-12-29T00:12:10;3.20;81.20
530;DHT22;251;48.704;9.210;2022-12-29T00:14:39;3.40;81.80
530;DHT22;251;48.704;9.210;2022-12-29T00:17:23;3.30;82.60
530;DHT22;251;48.704;9.210;2022-12-29T00:19:50;3.40;82.60
530;DHT22;251;48.704;9.210;2022-12-29T00:22:34;3.40;82.80
530;DHT22;251;48.704;9.210;2022-12-29T00:25:30;3.50;82.80
530;DHT22;251;48.704;9.210;2022-12-29T00:28:14;3.20;82.70
530;DHT22;251;48.704;9.210;2022-12-29T00:31:00;3.40;82.70
530;DHT22;251;48.704;9.210;2022-12-29T00:33:45;3.50;82.70
530;DHT22;251;48.704;9.210;2022-12-29T00:36:32;3.60;83.20
530;DHT22;251;48.704;9.210;2022-12-29T00:39:01;3.60;83.80
530;DHT22;251;48.704;9.210;2022-12-29T00:41:47;3.60;83.60
530;DHT22;251;48.704;9.210;2022-12-29T00:44:32;3.50;83.40
530;DHT22;251;48.704;9.210;2022-12-29T00:47:00;3.60;83.50
530;DHT22;251;48.704;9.210;2022-12-29T00:49:31;3.60;83.80
530;DHT22;251;48.704;9.210;2022-12-29T00:52:00;3.40;83.60
530;DHT22;251;48.704;9.210;2022-12-29T00:54:28;3.50;83.90
530;DHT22;251;48.704;9.210;2022-12-29T00:56:55;3.60;84.10
530;DHT22;251;48.704;9.210;2022-12-29T00:59:22;3.60;84.30
530;DHT22;251;48.704;9.210;2022-12-29T01:01:50;3.60;84.00
530;DHT22;251;48.704;9.210;2022-12-29T01:04:21;3.70;84.80
530;DHT22;251;48.704;9.210;2022-12-29T01:06:48;3.50;85.10
530;DHT22;251;48.704;9.210;2022-12-29T01:09:16;3.60;85.00
530;DHT22;251;48.704;9.210;2022-12-29T01:12:01;3.60;85.60
530;DHT22;251;48.704;9.210;2022-12-29T01:14:28;3.60;85.70
530;DHT22;251;48.704;9.210;2022-12-29T01:16:56;3.80;85.40
530;DHT22;251;48.704;9.210;2022-12-29T01:19:25;4.00;85.20
530;DHT22;251;48.704;9.210;2022-12-29T01:21:54;3.90;84.80
530;DHT22;251;48.704;9.210;2022-12-29T01:24:21;3.90;84.50
530;DHT22;251;48.704;9.210;2022-12-29T01:26:49;3.80;84.70
530;DHT22;251;48.704;9.210;2022-12-29T01:29:16;3.80;85.70
530;DHT22;251;48.704;9.210;2022-12-29T01:31:44;3.70;85.80
530;DHT22;251;48.704;9.210;2022-12-29T01:34:11;3.80;86.20
530;DHT22;251;48.704;9.210;2022-12-29T01:36:40;3.80;86.10
530;DHT22;251;48.704;9.210;2022-12-29T01:39:06;3.80;86.60
530;DHT22;251;48.704;9.210;2022-12-29T01:41:33;3.90;87.50
530;DHT22;251;48.704;9.210;2022-12-29T01:44:01;3.90;88.20
530;DHT22;251;48.704;9.210;2022-12-29T01:46:31;3.70;91.50
530;DHT22;251;48.704;9.210;2022-12-29T01:49:05;4.30;94.20
530;DHT22;251;48.704;9.210;2022-12-29T01:51:40;4.10;94.50
530;DHT22;251;48.704;9.210;2022-12-29T01:54:10;4.40;94.80
530;DHT22;251;48.704;9.210;2022-12-29T01:56:39;4.80;94.10
530;DHT22;251;48.704;9.210;2022-12-29T01:59:11;5.10;93.80
530;DHT22;251;48.704;9.210;2022-12-29T02:01:40;5.30;91.10
530;DHT22;251;48.704;9.210;2022-12-29T02:04:09;5.60;83.60
530;DHT22;251;48.704;9.210;2022-12-29T02:06:43;5.80;76.30
530;DHT22;251;48.704;9.210;2022-12-29T02:09:14;6.00;73.60
530;DHT22;251;48.704;9.210;2022-12-29T02:11:40;6.30;70.60
530;DHT22;251;48.704;9.210;2022-12-29T02:14:09;6.50;68.10
530;DHT22;251;48.704;9.210;2022-12-29T02:16:47;6.60;66.20
530;DHT22;251;48.704;9.210;2022-12-29T02:19:39;6.80;64.60
530;DHT22;251;48.704;9.210;2022-12-29T02:22:20;6.90;63.30
530;DHT22;251;48.704;9.210;2022-12-29T02:25:14;6.80;62.40
530;DHT22;251;48.704;9.210;2022-12-29T02:27:53;7.10;60.70
530;DHT22;251;48.704;9.210;2022-12-29T02:30:38;7.30;61.00
530;DHT22;251;48.704;9.210;2022-12-29T02:33:13;7.20;59.60
530;DHT22;251;48.704;9.210;2022-12-29T02:35:50;7.20;58.10
530;DHT22;251;48.704;9.210;2022-12-29T02:38:26;7.20;57.80
530;DHT22;251;48.704;9.210;2022-12-29T02:41:00;7.60;57.10
530;DHT22;251;48.704;9.210;2022-12-29T02:43:36;7.50;57.00
530;DHT22;251;48.704;9.210;2022-12-29T02:46:10;7.60;56.20
530;DHT22;251;48.704;9.210;2022-12-29T02:48:44;7.60;54.50
530;DHT22;251;48.704;9.210;2022-12-29T02:51:15;7.90;53.40
530;DHT22;251;48.704;9.210;2022-12-29T02:53:45;7.90;53.70
530;DHT22;251;48.704;9.210;2022-12-29T02:56:30;7.80;52.20
530;DHT22;251;48.704;9.210;2022-12-29T02:58:57;7.90;52.00
530;DHT22;251;48.704;9.210;2022-12-29T03:01:33;8.30;51.00
530;DHT22;251;48.704;9.210;2022-12-29T03:04:13;8.20;50.30
530;DHT22;251;48.704;9.210;2022-12-29T03:06:51;8.30;50.90
530;DHT22;251;48.704;9.210;2022-12-29T03:09:26;8.30;50.30
530;DHT22;251;48.704;9.210;2022-12-29T03:11:59;8.40;50.50
530;DHT22;251;48.704;9.210;2022-12-29T03:14:44;8.20;49.20
530;DHT22;251;48.704;9.210;2022-12-29T03:17:46;8.40;50.00
530;DHT22;251;48.704;9.210;2022-12-29T03:20:18;8.40;49.50
530;DHT22;251;48.704;9.210;2022-12-29T03:22:51;8.20;49.00
530;DHT22;251;48.704;9.210;2022-12-29T03:25:26;8.20;49.00
530;DHT22;251;48.704;9.210;2022-12-29T03:27:57;8.50;49.40
530;DHT22;251;48.704;9.210;2022-12-29T03:30:26;8.50;49.50
530;DHT22;251;48.704;9.210;2022-12-29T03:32:59;8.20;49.40
530;DHT22;251;48.704;9.210;2022-12-29T03:35:33;8.20;48.70
530;DHT22;251;48.704;9.210;2022-12-29T03:38:06;8.70;49.20
530;DHT22;251;48.704;9.210;2022-12-29T03:40:37;8.20;48.40
530;DHT22;251;48.704;9.210;2022-12-29T03:43:05;8.80;48.70
530;DHT22;251;48.704;9.210;2022-12-29T03:45:34;8.80;48.30
530;DHT22;251;48.704;9.210;2022-12-29T03:48:02;8.70;48.30
530;DHT22;251;48.704;9.210;2022-12-29T03:50:30;8.70;48.10
530;DHT22;251;48.704;9.210;2022-12-29T03:52:57;8.70;47.80
530;DHT22;251;48.704;9.210;2022-12-29T03:55:25;8.80;47.60
530;DHT22;251;48.704;9.210;2022-12-29T03:57:52;8.70;48.50
530;DHT22;251;48.704;9.210;2022-12-29T04:00:29;8.80;48.50
530;DHT22;251;48.704;9.210;2022-12-29T04:02:56;8.60;47.90
530;DHT22;251;48.704;9.210;2022-12-29T04:05:24;9.10;48.20
530;DHT22;251;48.704;9.210;2022-12-29T04:07:53;9.00;47.30
530;DHT22;251;48.704;9.210;2022-12-29T04:10:20;9.10;48.80
530;DHT22;251;48.704;9.210;2022-12-29T04:12:50;9.20;48.90
530;DHT22;251;48.704;9.210;2022-12-29T04:15:16;9.10;48.30
530;DHT22;251;48.704;9.210;2022-12-29T04:17:43;8.90;48.20
530;DHT22;251;48.704;9.210;2022-12-29T04:20:11;9.20;49.00
530;DHT22;251;48.704;9.210;2022-12-29T04:23:00;9.00;48.20
530;DHT22;251;48.704;9.210;2022-12-29T04:25:28;9.10;49.30
530;DHT22;251;48.704;9.210;2022-12-29T04:27:54;9.30;48.00
530;DHT22;251;48.704;9.210;2022-12-29T04:30:36;9.20;48.60
530;DHT22;251;48.704;9.210;2022-12-29T04:33:10;9.00;48.80
530;DHT22;251;48.704;9.210;2022-12-29T04:35:38;9.20;47.90
530;DHT22;251;48.704;9.210;2022-12-29T04:38:07;9.20;48.70
530;DHT22;251;48.704;9.210;2022-12-29T04:40:34;9.00;48.70
530;DHT22;251;48.704;9.210;2022-12-29T04:43:01;9.30;49.10
530;DHT22;251;48.704;9.210;2022-12-29T04:45:28;9.40;48.80
530;DHT22;251;48.704;9.210;2022-12-29T04:48:13;9.00;48.10
530;DHT22;251;48.704;9.210;2022-12-29T04:51:04;9.20;48.40
530;DHT22;251;48.704;9.210;2022-12-29T04:53:38;9.20;48.30
530;DHT22;251;48.704;9.210;2022-12-29T04:56:05;9.20;48.20
530;DHT22;251;48.704;9.210;2022-12-29T04:58:32;9.30;49.10
530;DHT22;251;48.704;9.210;2022-12-29T05:00:59;9.20;48.40
530;DHT22;251;48.704;9.210;2022-12-29T05:03:29;9.10;48.30
530;DHT22;251;48.704;9.210;2022-12-29T05:05:56;9.20;48.80
530;DHT22;251;48.704;9.210;2022-12-29T05:08:24;9.20;48.10
530;DHT22;251;48.704;9.210;2022-12-29T05:10:52;8.90;47.90
530;DHT22;251;48.704;9.210;2022-12-29T05:13:20;9.20;47.60
530;DHT22;251;48.704;9.210;2022-12-29T05:15:49;9.00;47.90
530;DHT22;251;48.704;9.210;2022-12-29T05:18:17;9.20;48.40
530;DHT22;251;48.704;9.210;2022-12-29T05:20:44;9.20;47.80
530;DHT22;251;48.704;9.210;2022-12-29T05:23:11;9.10;48.80
530;DHT22;251;48.704;9.210;2022-12-29T05:25:38;9.10;47.90
530;DHT22;251;48.704;9.210;2022-12-29T05:28:18;9.20;48.20
530;DHT22;251;48.704;9.210;2022-12-29T05:30:49;9.20;48.40
530;DHT22;251;48.704;9.210;2022-12-29T05:33:17;9.20;48.00
530;DHT22;251;48.704;9.210;2022-12-29T05:35:45;9.10;47.60
530;DHT22;251;48.704;9.210;2022-12-29T05:38:13;9.10;47.80
530;DHT22;251;48.704;9.210;2022-12-29T05:40:39;9.10;48.20
530;DHT22;251;48.704;9.210;2022-12-29T05:43:19;9.20;48.80
530;DHT22;251;48.704;9.210;2022-12-29T05:46:06;9.10;47.60
530;DHT22;251;48.704;9.210;2022-12-29T05:48:45;9.40;47.80
530;DHT22;251;48.704;9.210;2022-12-29T05:51:22;9.50;47.50
530;DHT22;251;48.704;9.210;2022-12-29T05:53:51;9.40;47.10
530;DHT22;251;48.704;9.210;2022-12-29T05:56:18;9.60;47.00
530;DHT22;251;48.704;9.210;2022-12-29T05:58:52;9.40;47.10
530;DHT22;251;48.704;9.210;2022-12-29T06:01:21;9.20;46.30
530;DHT22;251;48.704;9.210;2022-12-29T06:03:47;9.50;46.40
530;DHT22;251;48.704;9.210;2022-12-29T06:06:16;9.50;46.60
530;DHT22;251;48.704;9.210;2022-12-29T06:08:43;9.50;46.30
530;DHT22;251;48.704;9.210;2022-12-29T06:11:10;9.50;45.90
530;DHT22;251;48.704;9.210;2022-12-29T06:13:40;9.50;45.40
530;DHT22;251;48.704;9.210;2022-12-29T06:16:09;9.50;45.60
530;DHT22;251;48.704;9.210;2022-12-29T06:18:37;9.30;45.50
530;DHT22;251;48.704;9.210;2022-12-29T06:21:05;9.50;45.90
530;DHT22;251;48.704;9.210;2022-12-29T06:23:32;9.40;45.80
530;DHT22;251;48.704;9.210;2022-12-29T06:25:58;9.40;45.10
530;DHT22;251;48.704;9.210;2022-12-29T06:28:25;9.30;45.30
530;DHT22;251;48.704;9.210;2022-12-29T06:30:52;9.40;45.10
530;DHT22;251;48.704;9.210;2022-12-29T06:33:20;9.00;45.30
530;DHT22;251;48.704;9.210;2022-12-29T06:35:47;9.40;45.30
530;DHT22;251;48.704;9.210;2022-12-29T06:38:14;9.10;45.60
530;DHT22;251;48.704;9.210;2022-12-29T06:40:42;9.20;45.30
530;DHT22;251;48.704;9.210;2022-12-29T06:43:19;9.20;45.40
530;DHT22;251;48.704;9.210;2022-12-29T06:46:11;9.20;45.40
530;DHT22;251;48.704;9.210;2022-12-29T06:48:39;9.10;46.20
530;DHT22;251;48.704;9.210;2022-12-29T06:51:07;9.00;45.80
530;DHT22;251;48.704;9.210;2022-12-29T06:53:34;9.10;46.20
530;DHT22;251;48.704;9.210;2022-12-29T06:56:01;8.90;46.40
530;DHT22;251;48.704;9.210;2022-12-29T06:58:27;9.20;47.00
530;DHT22;251;48.704;9.210;2022-12-29T07:00:54;8.70;46.30
530;DHT22;251;48.704;9.210;2022-12-29T07:03:21;8.90;46.50
530;DHT22;251;48.704;9.210;2022-12-29T07:05:49;9.00;46.60
530;DHT22;251;48.704;9.210;2022-12-29T07:08:16;9.10;46.90
530;DHT22;251;48.704;9.210;2022-12-29T07:10:43;8.80;47.10
530;DHT22;251;48.704;9.210;2022-12-29T07:13:09;8.50;46.70
530;DHT22;251;48.704;9.210;2022-12-29T07:15:36;9.10;47.20
530;DHT22;251;48.704;9.210;2022-12-29T07:18:03;8.80;48.10
530;DHT22;251;48.704;9.210;2022-12-29T07:20:30;9.00;47.90
530;DHT22;251;48.704;9.210;2022-12-29T07:22:59;8.80;47.70
530;DHT22;251;48.704;9.210;2022-12-29T07:25:25;8.80;47.60
530;DHT22;251;48.704;9.210;2022-12-29T07:27:53;8.90;48.00
530;DHT22;251;48.704;9.210;2022-12-29T07:30:20;8.60;47.80
530;DHT22;251;48.704;9.210;2022-12-29T07:32:47;9.10;47.90
530;DHT22;251;48.704;9.210;2022-12-29T07:35:14;9.00;48.40
530;DHT22;251;48.704;9.210;2022-12-29T07:37:40;9.00;47.90
530;DHT22;251;48.704;9.210;2022-12-29T07:40:10;8.80;48.20
530;DHT22;251;48.704;9.210;2022-12-29T07:42:37;8.80;48.20
530;DHT22;251;48.704;9.210;2022-12-29T07:45:08;9.00;48.30
530;DHT22;251;48.704;9.210;2022-12-29T07:47:53;8.60;48.30
530;DHT22;251;48.704;9.210;2022-12-29T07:50:19;9.00;48.90
530;DHT22;251;48.704;9.210;2022-12-29T07:52:46;8.60;48.80
530;DHT22;251;48.704;9.210;2022-12-29T07:55:15;8.50;49.20
530;DHT22;251;48.704;9.210;2022-12-29T07:57:42;8.80;49.70
530;DHT22;251;48.704;9.210;2022-12-29T08:00:10;8.50;50.00
530;DHT22;251;48.704;9.210;2022-12-29T08:02:37;8.50;49.90
530;DHT22;251;48.704;9.210;2022-12-29T08:05:05;8.50;49.90
530;DHT22;251;48.704;9.210;2022-12-29T08:07:32;8.70;50.50
530;DHT22;251;48.704;9.210;2022-12-29T08:09:59;8.60;50.40
530;DHT22;251;48.704;9.210;2022-12-29T08:12:28;8.60;50.50
530;DHT22;251;48.704;9.210;2022-12-29T08:14:55;8.50;50.80
530;DHT22;251;48.704;9.210;2022-12-29T08:17:22;8.70;50.80
530;DHT22;251;48.704;9.210;2022-12-29T08:19:48;8.70;50.60
530;DHT22;251;48.704;9.210;2022-12-29T08:22:15;8.60;50.70
530;DHT22;251;48.704;9.210;2022-12-29T08:24:42;8.90;50.60
530;DHT22;251;48.704;9.210;2022-12-29T08:27:08;9.00;50.00
530;DHT22;251;48.704;9.210;2022-12-29T08:29:37;8.90;50.20
530;DHT22;251;48.704;9.210;2022-12-29T08:32:04;9.10;49.80
530;DHT22;251;48.704;9.210;2022-12-29T08:34:31;9.10;50.30
530;DHT22;251;48.704;9.210;2022-12-29T08:36:58;8.90;50.10
530;DHT22;251;48.704;9.210;2022-12-29T08:39:25;9.20;49.40
530;DHT22;251;48.704;9.210;2022-12-29T08:41:52;9.40;50.00
530;DHT22;251;48.704;9.210;2022-12-29T08:44:19;9.50;50.00
530;DHT22;251;48.704;9.210;2022-12-29T08:46:47;9.50;49.20
530;DHT22;251;48.704;9.210;2022-12-29T08:49:14;9.50;48.00
530;DHT22;251;48.704;9.210;2022-12-29T08:51:41;9.50;47.90
530;DHT22;251;48.704;9.210;2022-12-29T08:54:08;9.50;47.60
530;DHT22;251;48.704;9.210;2022-12-29T08:56:35;9.60;46.50
530;DHT22;251;48.704;9.210;2022-12-29T08:59:03;9.80;46.20
530;DHT22;251;48.704;9.210;2022-12-29T09:01:30;9.80;45.90
530;DHT22;251;48.704;9.210;2022-12-29T09:04:00;9.80;45.30
530;DHT22;251;48.704;9.210;2022-12-29T09:06:27;10.00;44.10
530;DHT22;251;48.704;9.210;2022-12-29T09:08:54;9.90;44.50
530;DHT22;251;48.704;9.210;2022-12-29T09:11:23;10.10;44.20
530;DHT22;251;48.704;9.210;2022-12-29T09:13:51;10.10;43.60
530;DHT22;251;48.704;9.210;2022-12-29T09:16:18;9.80;44.20
530;DHT22;251;48.704;9.210;2022-12-29T09:18:46;10.10;43.00
530;DHT22;251;48.704;9.210;2022-12-29T09:21:14;9.80;43.30
530;DHT22;251;48.704;9.210;2022-12-29T09:23:41;10.20;42.20
530;DHT22;251;48.704;9.210;2022-12-29T09:26:08;10.30;42.10
530;DHT22;251;48.704;9.210;2022-12-29T09:28:35;10.30;42.30
530;DHT22;251;48.704;9.210;2022-12-29T09:31:02;10.30;41.90
530;DHT22;251;48.704;9.210;2022-12-29T09:33:29;10.30;41.30
530;DHT22;251;48.704;9.210;2022-12-29T09:35:58;10.40;42.50
530;DHT22;251;48.704;9.210;2022-12-29T09:38:27;10.30;41.70
530;DHT22;251;48.704;9.210;2022-12-29T09:40:56;10.50;41.60
530;DHT22;251;48.704;9.210;2022-12-29T09:43:48;10.30;40.50
530;DHT22;251;48.704;9.210;2022-12-29T09:46:23;10.30;41.20
530;DHT22;251;48.704;9.210;2022-12-29T09:48:55;10.60;42.00
530;DHT22;251;48.704;9.210;2022-12-29T09:51:25;10.60;41.70
530;DHT22;251;48.704;9.210;2022-12-29T09:53:57;10.50;41.30
530;DHT22;251;48.704;9.210;2022-12-29T09:56:26;10.60;41.40
530;DHT22;251;48.704;9.210;2022-12-29T09:58:58;10.80;40.80
530;DHT22;251;48.704;9.210;2022-12-29T10:01:30;10.60;41.60
530;DHT22;251;48.704;9.210;2022-12-29T10:03:58;10.60;41.60
530;DHT22;251;48.704;9.210;2022-12-29T10:06:33;10.60;41.70
530;DHT22;251;48.704;9.210;2022-12-29T10:09:10;10.60;42.00
530;DHT22;251;48.704;9.210;2022-12-29T10:11:56;11.00;42.70
530;DHT22;251;48.704;9.210;2022-12-29T10:14:36;10.90;43.00
530;DHT22;251;48.704;9.210;2022-12-29T10:17:19;10.80;43.60
530;DHT22;251;48.704;9.210;2022-12-29T10:19:58;10.90;42.50
530;DHT22;251;48.704;9.210;2022-12-29T10:22:42;11.00;43.10
530;DHT22;251;48.704;9.210;2022-12-29T10:25:16;10.70;42.50
530;DHT22;251;48.704;9.210;2022-12-29T10:27:47;10.90;43.00
530;DHT22;251;48.704;9.210;2022-12-29T10:30:15;10.90;43.40
530;DHT22;251;48.704;9.210;2022-12-29T10:32:45;10.90;42.70
530;DHT22;251;48.704;9.210;2022-12-29T10:35:15;10.90;42.20
530;DHT22;251;48.704;9.210;2022-12-29T10:37:49;11.10;42.40
530;DHT22;251;48.704;9.210;2022-12-29T10:40:24;11.00;43.00
530;DHT22;251;48.704;9.210;2022-12-29T10:42:53;11.20;43.00
530;DHT22;251;48.704;9.210;2022-12-29T10:45:23;11.10;43.30
530;DHT22;251;48.704;9.210;2022-12-29T10:47:56;10.90;43.20
530;DHT22;251;48.704;9.210;2022-12-29T10:50:25;11.20;43.30
530;DHT22;251;48.704;9.210;2022-12-29T10:52:54;11.00;43.80
530;DHT22;251;48.704;9.210;2022-12-29T10:55:26;11.00;43.50
530;DHT22;251;48.704;9.210;2022-12-29T10:57:55;11.20;43.40
530;DHT22;251;48.704;9.210;2022-12-29T11:00:25;11.20;43.30
530;DHT22;251;48.704;9.210;2022-12-29T11:03:18;11.30;43.80
530;DHT22;251;48.704;9.210;2022-12-29T11:05:57;11.30;43.50
530;DHT22;251;48.704;9.210;2022-12-29T11:08:30;10.90;43.50
530;DHT22;251;48.704;9.210;2022-12-29T11:11:00;10.90;43.70
530;DHT22;251;48.704;9.210;2022-12-29T11:13:29;10.90;43.70
530;DHT22;251;48.704;9.210;2022-12-29T11:15:57;10.90;44.20
530;DHT22;251;48.704;9.210;2022-12-29T11:18:26;10.80;44.30
530;DHT22;251;48.704;9.210;2022-12-29T11:20:56;11.10;44.30
530;DHT22;251;48.704;9.210;2022-12-29T11:23:29;11.00;44.10
530;DHT22;251;48.704;9.210;2022-12-29T11:26:15;11.30;43.00
530;DHT22;251;48.704;9.210;2022-12-29T11:28:45;11.10;44.10
530;DHT22;251;48.704;9.210;2022-12-29T11:31:16;11.00;44.50
530;DHT22;251;48.704;9.210;2022-12-29T11:33:43;11.30;43.50
530;DHT22;251;48.704;9.210;2022-12-29T11:36:12;11.20;43.70
530;DHT22;251;48.704;9.210;2022-12-29T11:38:41;11.30;44.10
530;DHT22;251;48.704;9.210;2022-12-29T11:41:13;11.30;43.60
530;DHT22;251;48.704;9.210;2022-12-29T11:43:45;11.20;43.10
530;DHT22;251;48.704;9.210;2022-12-29T11:46:16;11.50;44.80
530;DHT22;251;48.704;9.210;2022-12-29T11:48:43;11.20;44.20
530;DHT22;251;48.704;9.210;2022-12-29T11:51:11;11.50;44.40
530;DHT22;251;48.704;9.210;2022-12-29T11:53:42;11.20;43.40
530;DHT22;251;48.704;9.210;2022-12-29T11:56:13;11.70;43.30
530;DHT22;251;48.704;9.210;2022-12-29T11:58:40;11.50;43.00
530;DHT22;251;48.704;9.210;2022-12-29T12:01:13;11.50;42.80
530;DHT22;251;48.704;9.210;2022-12-29T12:03:45;11.70;43.70
530;DHT22;251;48.704;9.210;2022-12-29T12:06:17;11.60;44.00
530;DHT22;251;48.704;9.210;2022-12-29T12:08:50;11.50;44.70
530;DHT22;251;48.704;9.210;2022-12-29T12:11:22;11.60;45.80
530;DHT22;251;48.704;9.210;2022-12-29T12:13:58;11.40;45.50
530;DHT22;251;48.704;9.210;2022-12-29T12:16:34;11.20;46.20
530;DHT22;251;48.704;9.210;2022-12-29T12:19:04;11.30;45.70
530;DHT22;251;48.704;9.210;2022-12-29T12:21:38;11.00;46.30
530;DHT22;251;48.704;9.210;2022-12-29T12:24:27;11.20;45.60
530;DHT22;251;48.704;9.210;2022-12-29T12:27:02;11.30;46.00
530;DHT22;251;48.704;9.210;2022-12-29T12:29:38;11.30;46.20
530;DHT22;251;48.704;9.210;2022-12-29T12:32:13;11.30;47.10
530;DHT22;251;48.704;9.210;2022-12-29T12:34:43;11.40;48.90
530;DHT22;251;48.704;9.210;2022-12-29T12:37:37;11.00;50.20
530;DHT22;251;48.704;9.210;2022-12-29T12:40:34;11.30;52.30
530;DHT22;251;48.704;9.210;2022-12-29T12:43:18;11.30;52.60
530;DHT22;251;48.704;9.210;2022-12-29T12:45:55;11.20;53.80
530;DHT22;251;48.704;9.210;2022-12-29T12:51:30;10.60;54.60
530;DHT22;251;48.704;9.210;2022-12-29T12:54:11;10.90;56.00
530;DHT22;251;48.704;9.210;2022-12-29T12:56:53;10.60;55.80
530;DHT22;251;48.704;9.210;2022-12-29T12:59:42;10.60;57.50
530;DHT22;251;48.704;9.210;2022-12-29T13:02:26;10.60;57.10
530;DHT22;251;48.704;9.210;2022-12-29T13:05:06;10.60;57.30
530;DHT22;251;48.704;9.210;2022-12-29T13:07:47;10.90;57.10
530;DHT22;251;48.704;9.210;2022-12-29T13:10:25;10.50;56.20
530;DHT22;251;48.704;9.210;2022-12-29T13:16:10;10.60;55.80
530;DHT22;251;48.704;9.210;2022-12-29T13:18:46;10.90;55.70
530;DHT22;251;48.704;9.210;2022-12-29T13:21:30;11.00;55.30
530;DHT22;251;48.704;9.210;2022-12-29T13:24:02;10.90;54.20
530;DHT22;251;48.704;9.210;2022-12-29T13:26:36;10.90;52.70
530;DHT22;251;48.704;9.210;2022-12-29T13:29:15;11.10;53.50
530;DHT22;251;48.704;9.210;2022-12-29T13:31:50;11.20;52.90
530;DHT22;251;48.704;9.210;2022-12-29T13:34:28;10.90;51.50
530;DHT22;251;48.704;9.210;2022-12-29T13:37:01;11.00;51.70
530;DHT22;251;48.704;9.210;2022-12-29T13:39:33;11.30;51.90
530;DHT22;251;48.704;9.210;2022-12-29T13:42:02;11.20;52.60
530;DHT22;251;48.704;9.210;2022-12-29T13:44:32;11.10;52.90
530;DHT22;251;48.704;9.210;2022-12-29T13:47:07;11.10;52.60
530;DHT22;251;48.704;9.210;2022-12-29T13:49:39;11.00;52.90
530;DHT22;251;48.704;9.210;2022-12-29T13:52:13;11.10;52.90
530;DHT22;251;48.704;9.210;2022-12-29T13:54:45;11.30;53.00
530;DHT22;251;48.704;9.210;2022-12-29T13:57:34;11.10;52.90
530;DHT22;251;48.704;9.210;2022-12-29T14:00:10;10.90;53.00
530;DHT22;251;48.704;9.210;2022-12-29T14:02:53;10.90;52.70
530;DHT22;251;48.704;9.210;2022-12-29T14:05:29;11.00;53.00
530;DHT22;251;48.704;9.210;2022-12-29T14:07:59;11.30;53.70
530;DHT22;251;48.704;9.210;2022-12-29T14:10:28;11.10;53.40
530;DHT22;251;48.704;9.210;2022-12-29T14:13:03;10.90;53.40
530;DHT22;251;48.704;9.210;2022-12-29T14:15:31;11.00;54.10
530;DHT22;251;48.704;9.210;2022-12-29T14:18:21;10.90;53.20
530;DHT22;251;48.704;9.210;2022-12-29T14:20:53;11.10;53.80
530;DHT22;251;48.704;9.210;2022-12-29T14:23:29;10.90;53.30
530;DHT22;251;48.704;9.210;2022-12-29T14:26:12;10.90;53.10
530;DHT22;251;48.704;9.210;2022-12-29T14:28:40;10.90;53.40
530;DHT22;251;48.704;9.210;2022-12-29T14:31:35;10.80;53.00
530;DHT22;251;48.704;9.210;2022-12-29T14:34:29;10.90;53.60
530;DHT22;251;48.704;9.210;2022-12-29T14:36:58;11.10;53.40
530;DHT22;251;48.704;9.210;2022-12-29T14:39:33;11.10;53.60
530;DHT22;251;48.704;9.210;2022-12-29T14:42:03;10.70;53.30
530;DHT22;251;48.704;9.210;2022-12-29T14:44:30;11.10;53.40
530;DHT22;251;48.704;9.210;2022-12-29T14:47:00;10.90;53.30
530;DHT22;251;48.704;9.210;2022-12-29T14:49:40;11.00;53.40
530;DHT22;251;48.704;9.210;2022-12-29T14:52:13;10.90;53.60
530;DHT22;251;48.704;9.210;2022-12-29T14:54:44;10.80;53.10
530;DHT22;251;48.704;9.210;2022-12-29T15:00:15;10.60;53.20
530;DHT22;251;48.704;9.210;2022-12-29T15:02:46;10.60;53.10
530;DHT22;251;48.704;9.210;2022-12-29T15:05:28;10.50;52.90
530;DHT22;251;48.704;9.210;2022-12-29T15:07:56;10.80;53.30
530;DHT22;251;48.704;9.210;2022-12-29T15:10:25;10.70;53.30
530;DHT22;251;48.704;9.210;2022-12-29T15:12:54;10.50;53.10
530;DHT22;251;48.704;9.210;2022-12-29T15:15:23;10.80;53.60
530;DHT22;251;48.704;9.210;2022-12-29T15:17:51;10.40;53.40
530;DHT22;251;48.704;9.210;2022-12-29T15:20:25;10.70;53.70
530;DHT22;251;48.704;9.210;2022-12-29T15:22:55;10.70;53.50
530;DHT22;251;48.704;9.210;2022-12-29T15:25:22;10.70;53.60
530;DHT22;251;48.704;9.210;2022-12-29T15:27:50;10.60;53.80
530;DHT22;251;48.704;9.210;2022-12-29T15:30:19;10.50;52.80
530;DHT22;251;48.704;9.210;2022-12-29T15:32:47;10.70;53.20
530;DHT22;251;48.704;9.210;2022-12-29T15:35:29;10.80;53.70
530;DHT22;251;48.704;9.210;2022-12-29T15:37:57;10.80;52.20
530;DHT22;251;48.704;9.210;2022-12-29T15:40:26;10.40;51.70
530;DHT22;251;48.704;9.210;2022-12-29T15:43:14;10.80;52.00
530;DHT22;251;48.704;9.210;2022-12-29T15:45:46;10.60;51.80
530;DHT22;251;48.704;9.210;2022-12-29T15:48:16;10.50;51.20
530;DHT22;251;48.704;9.210;2022-12-29T15:50:45;10.50;50.20
530;DHT22;251;48.704;9.210;2022-12-29T15:53:18;10.80;49.80
530;DHT22;251;48.704;9.210;2022-12-29T15:55:46;10.60;49.60
530;DHT22;251;48.704;9.210;2022-12-29T15:58:20;10.50;49.00
530;DHT22;251;48.704;9.210;2022-12-29T16:00:49;10.80;49.90
530;DHT22;251;48.704;9.210;2022-12-29T16:03:19;10.70;49.90
530;DHT22;251;48.704;9.210;2022-12-29T16:05:53;10.50;48.60
530;DHT22;251;48.704;9.210;2022-12-29T16:08:32;10.90;49.50
530;DHT22;251;48.704;9.210;2022-12-29T16:11:00;10.80;49.70
530;DHT22;251;48.704;9.210;2022-12-29T16:13:31;10.50;49.00
530;DHT22;251;48.704;9.210;2022-12-29T16:16:01;10.70;49.50
530;DHT22;251;48.704;9.210;2022-12-29T16:18:32;10.60;49.90
530;DHT22;251;48.704;9.210;2022-12-29T16:21:02;10.60;50.00
530;DHT22;251;48.704;9.210;2022-12-29T16:23:31;10.50;50.10
530;DHT22;251;48.704;9.210;2022-12-29T16:25:58;10.50;50.10
530;DHT22;251;48.704;9.210;2022-12-29T16:28:34;10.80;50.70
530;DHT22;251;48.704;9.210;2022-12-29T16:31:04;10.50;50.60
530;DHT22;251;48.704;9.210;2022-12-29T16:33:43;10.60;51.60
530;DHT22;251;48.704;9.210;2022-12-29T16:36:27;10.50;51.90
530;DHT22;251;48.704;9.210;2022-12-29T16:41:55;10.50;54.90
530;DHT22;251;48.704;9.210;2022-12-29T16:44:23;10.20;56.30
530;DHT22;251;48.704;9.210;2022-12-29T16:47:17;10.50;57.10
530;DHT22;251;48.704;9.210;2022-12-29T16:49:51;10.30;58.20
530;DHT22;251;48.704;9.210;2022-12-29T16:52:22;10.10;59.00
530;DHT22;251;48.704;9.210;2022-12-29T16:54:53;10.20;59.70
530;DHT22;251;48.704;9.210;2022-12-29T16:57:26;10.00;59.20
530;DHT22;251;48.704;9.210;2022-12-29T16:59:56;10.10;60.30
530;DHT22;251;48.704;9.210;2022-12-29T17:02:25;9.90;60.80
530;DHT22;251;48.704;9.210;2022-12-29T17:04:53;9.80;60.90
530;DHT22;251;48.704;9.210;2022-12-29T17:07:23;10.20;60.50
530;DHT22;251;48.704;9.210;2022-12-29T17:09:50;9.70;61.50
530;DHT22;251;48.704;9.210;2022-12-29T17:12:20;9.80;62.00
530;DHT22;251;48.704;9.210;2022-12-29T17:14:50;9.70;62.90
530;DHT22;251;48.704;9.210;2022-12-29T17:17:29;9.90;63.60
530;DHT22;251;48.704;9.210;2022-12-29T17:19:59;10.00;62.80
530;DHT22;251;48.704;9.210;2022-12-29T17:22:30;9.80;63.40
530;DHT22;251;48.704;9.210;2022-12-29T17:24:58;9.70;63.40
530;DHT22;251;48.704;9.210;2022-12-29T17:27:29;9.70;64.40
530;DHT22;251;48.704;9.210;2022-12-29T17:29:58;9.60;63.70